Zemst, Belgium
Current Conditions -  °F | °C
As of 4:50 AM on Wednesday 28 Jan 2015 (Local Time) from EBBR Reporting Station
Broken Clouds Broken Clouds  
Wind Chill: 34°   Ceiling: 1100
Heat Index: 41°   Visibility: 6mi
Dew Point: 37°   Wind: 12mph
Humidity: 87%   Direction: 220°SW
Pressure: 30.03"   Gusts: NA
Location:  50.98°N, 4.46°E
Report Text: EBBR 280350Z 22010KT 9999 BKN011 BKN037 05/03 Q1017 TEMPO BKN006
Loading
Personal Weather Stations






























Interactive Weather Map New forecast layout! Learn more

10-Day Weather Forecast

Advertisements
Track Severe Weather on mobile